createdAt,value
2023-04-16T00:00:03.978Z,4.43
2023-04-16T00:02:39.552Z,4.60
2023-04-16T00:05:07.741Z,4.47
2023-04-16T00:07:35.352Z,4.73
2023-04-16T00:10:03.070Z,4.77
2023-04-16T00:12:33.328Z,4.57
2023-04-16T00:15:01.147Z,4.37
2023-04-16T00:17:28.729Z,4.20
2023-04-16T00:19:56.338Z,3.90
2023-04-16T00:22:23.862Z,4.53
2023-04-16T00:24:51.347Z,4.87
2023-04-16T00:27:20.434Z,5.27
2023-04-16T00:29:48.463Z,4.20
2023-04-16T00:32:16.451Z,5.47
2023-04-16T00:34:44.041Z,5.40
2023-04-16T00:37:11.581Z,5.40
2023-04-16T00:39:39.152Z,4.37
2023-04-16T00:42:06.733Z,4.57
2023-04-16T00:44:37.571Z,4.50
2023-04-16T00:47:07.717Z,4.23
2023-04-16T00:49:36.415Z,4.60
2023-04-16T00:52:04.141Z,5.10
2023-04-16T00:54:32.129Z,5.07
2023-04-16T00:57:00.207Z,5.23
2023-04-16T00:59:29.116Z,4.63
2023-04-16T01:01:56.835Z,5.03
2023-04-16T01:04:24.725Z,5.20
2023-04-16T01:06:52.701Z,4.60
2023-04-16T01:09:20.212Z,4.17
2023-04-16T01:11:47.836Z,4.83
2023-04-16T01:14:15.486Z,5.23
2023-04-16T01:16:43.123Z,5.00
2023-04-16T01:19:11.049Z,5.37
2023-04-16T01:21:38.906Z,4.90
2023-04-16T01:24:06.668Z,5.03
2023-04-16T01:26:34.226Z,5.57
2023-04-16T01:29:03.195Z,4.97
2023-04-16T01:31:30.746Z,4.50
2023-04-16T01:34:05.580Z,5.00
2023-04-16T01:36:35.528Z,5.03
2023-04-16T01:39:03.699Z,4.73
2023-04-16T01:41:32.234Z,5.07
2023-04-16T01:44:00.193Z,4.23
2023-04-16T01:46:29.582Z,4.73
2023-04-16T01:48:58.210Z,5.80
2023-04-16T01:51:25.857Z,5.30
2023-04-16T01:53:54.203Z,5.00
2023-04-16T01:56:21.962Z,5.73
2023-04-16T01:58:49.900Z,5.13
2023-04-16T02:01:19.373Z,4.53
2023-04-16T02:03:48.760Z,5.67
2023-04-16T02:06:16.530Z,5.57
2023-04-16T02:08:44.236Z,5.30
2023-04-16T02:11:11.780Z,5.30
2023-04-16T02:13:40.231Z,5.10
2023-04-16T02:16:07.952Z,4.87
2023-04-16T02:18:49.594Z,5.03
2023-04-16T02:21:20.307Z,4.87
2023-04-16T02:23:51.873Z,5.07
2023-04-16T02:26:24.174Z,4.37
2023-04-16T02:28:52.054Z,5.23
2023-04-16T02:31:24.137Z,5.13
2023-04-16T02:33:51.994Z,5.10
2023-04-16T02:36:19.608Z,4.47
2023-04-16T02:38:47.139Z,5.10
2023-04-16T02:41:15.245Z,4.57
2023-04-16T02:43:42.732Z,5.53
2023-04-16T02:46:10.466Z,4.30
2023-04-16T02:48:38.031Z,5.17
2023-04-16T02:51:06.054Z,5.10
2023-04-16T02:53:33.550Z,5.10
2023-04-16T02:56:01.231Z,4.17
2023-04-16T02:58:29.123Z,3.90
2023-04-16T03:00:56.829Z,4.70
2023-04-16T03:03:24.520Z,4.67
2023-04-16T03:05:52.367Z,4.20
2023-04-16T03:08:19.924Z,4.50
2023-04-16T03:10:47.442Z,4.80
2023-04-16T03:13:15.693Z,4.90
2023-04-16T03:15:49.978Z,5.30
2023-04-16T03:18:17.797Z,4.37
2023-04-16T03:20:45.522Z,4.70
2023-04-16T03:23:13.398Z,4.83
2023-04-16T03:25:41.045Z,4.70
2023-04-16T03:28:10.173Z,5.03
2023-04-16T03:30:39.085Z,5.33
2023-04-16T03:33:07.720Z,4.83
2023-04-16T03:35:35.909Z,4.80
2023-04-16T03:38:04.073Z,5.27
2023-04-16T03:40:32.076Z,4.93
2023-04-16T03:43:01.035Z,5.37
2023-04-16T03:45:29.584Z,5.30
2023-04-16T03:47:57.636Z,4.93
2023-04-16T03:50:26.815Z,4.77
2023-04-16T03:52:54.903Z,5.67
2023-04-16T03:55:22.619Z,4.83
2023-04-16T03:57:50.131Z,4.60
2023-04-16T04:00:18.092Z,4.53
2023-04-16T04:02:59.118Z,4.37
2023-04-16T04:05:27.981Z,5.10
2023-04-16T04:07:55.490Z,4.70
2023-04-16T04:10:23.612Z,5.30
2023-04-16T04:12:51.874Z,5.67
2023-04-16T04:15:19.561Z,4.70
2023-04-16T04:17:48.099Z,5.60
2023-04-16T04:20:16.338Z,4.77
2023-04-16T04:22:47.772Z,5.67
2023-04-16T04:25:15.598Z,5.17
2023-04-16T04:27:43.438Z,6.00
2023-04-16T04:30:11.415Z,5.60
2023-04-16T04:32:40.026Z,5.47
2023-04-16T04:35:07.949Z,5.37
2023-04-16T04:37:36.290Z,5.60
2023-04-16T04:40:12.573Z,4.93
2023-04-16T04:42:40.060Z,4.87
2023-04-16T04:45:08.608Z,5.90
2023-04-16T04:47:36.550Z,6.77
2023-04-16T04:50:04.361Z,4.73
2023-04-16T04:52:33.638Z,5.37
2023-04-16T04:55:02.552Z,5.30
2023-04-16T04:57:31.709Z,5.27
2023-04-16T04:59:59.637Z,5.40
2023-04-16T05:02:34.496Z,5.67
2023-04-16T05:05:02.211Z,5.87
2023-04-16T05:07:32.345Z,5.97
2023-04-16T05:10:00.218Z,5.37
2023-04-16T05:12:27.817Z,5.43
2023-04-16T05:14:56.793Z,4.27
2023-04-16T05:17:24.364Z,5.13
2023-04-16T05:19:52.846Z,4.70
2023-04-16T05:22:20.557Z,4.80
2023-04-16T05:24:48.183Z,5.13
2023-04-16T05:27:16.340Z,4.57
2023-04-16T05:29:44.179Z,4.80
2023-04-16T05:32:11.836Z,5.43
2023-04-16T05:34:46.499Z,4.53
2023-04-16T05:37:14.104Z,5.13
2023-04-16T05:39:41.572Z,5.40
2023-04-16T05:42:09.293Z,4.60
2023-04-16T05:44:37.759Z,4.67
2023-04-16T05:47:07.376Z,4.80
2023-04-16T05:49:36.999Z,5.30
2023-04-16T05:52:05.819Z,5.03
2023-04-16T05:54:33.280Z,4.43
2023-04-16T05:57:02.428Z,4.13
2023-04-16T05:59:31.112Z,4.75
2023-04-16T06:01:58.901Z,4.30
2023-04-16T06:04:26.604Z,3.97
2023-04-16T06:06:54.223Z,3.72
2023-04-16T06:09:21.795Z,4.88
2023-04-16T06:11:51.029Z,4.57
2023-04-16T06:14:18.928Z,4.35
2023-04-16T06:16:46.626Z,4.93
2023-04-16T06:19:14.165Z,4.28
2023-04-16T06:21:41.707Z,5.07
2023-04-16T06:24:09.393Z,4.75
2023-04-16T06:26:36.947Z,4.55
2023-04-16T06:29:04.609Z,4.32
2023-04-16T06:31:32.390Z,4.93
2023-04-16T06:33:59.910Z,4.70
2023-04-16T06:36:29.147Z,3.47
2023-04-16T06:38:58.078Z,4.95
2023-04-16T06:41:26.837Z,5.00
2023-04-16T06:43:54.499Z,4.63
2023-04-16T06:46:22.064Z,5.22
2023-04-16T06:48:49.834Z,5.05
2023-04-16T06:51:17.492Z,5.22
2023-04-16T06:53:45.143Z,8.65
2023-04-16T06:56:12.682Z,5.07
2023-04-16T06:58:40.255Z,5.18
2023-04-16T07:01:07.996Z,4.90
2023-04-16T07:03:35.771Z,4.80
2023-04-16T07:06:03.434Z,4.10
2023-04-16T07:08:31.715Z,4.47
2023-04-16T07:10:59.520Z,4.30
2023-04-16T07:13:27.726Z,4.32
2023-04-16T07:15:56.460Z,4.30
2023-04-16T07:18:24.062Z,4.22
2023-04-16T07:20:51.628Z,4.30
2023-04-16T07:23:19.225Z,4.32
2023-04-16T07:25:46.800Z,3.75
2023-04-16T07:28:17.197Z,4.97
2023-04-16T07:30:44.900Z,4.50
2023-04-16T07:33:12.556Z,4.50
2023-04-16T07:35:40.237Z,4.47
2023-04-16T07:38:07.826Z,4.55
2023-04-16T07:40:36.614Z,3.97
2023-04-16T07:43:04.394Z,3.30
2023-04-16T07:45:32.078Z,3.83
2023-04-16T07:47:59.725Z,3.72
2023-04-16T07:50:27.508Z,3.30
2023-04-16T07:52:57.504Z,3.40
2023-04-16T07:55:25.498Z,3.55
2023-04-16T07:57:53.015Z,2.92
2023-04-16T08:00:20.672Z,3.10
2023-04-16T08:02:48.596Z,2.28
2023-04-16T08:05:16.415Z,2.40
2023-04-16T08:07:43.974Z,3.95
2023-04-16T08:10:11.748Z,2.78
2023-04-16T08:12:39.544Z,3.13
2023-04-16T08:15:08.753Z,2.58
2023-04-16T08:17:37.826Z,2.67
2023-04-16T08:20:06.812Z,2.92
2023-04-16T08:22:34.681Z,2.88
2023-04-16T08:25:03.522Z,2.58
2023-04-16T08:27:32.295Z,2.90
2023-04-16T08:29:59.931Z,3.30
2023-04-16T08:32:28.226Z,3.40
2023-04-16T08:34:55.908Z,2.38
2023-04-16T08:37:23.924Z,3.10
2023-04-16T08:39:51.480Z,3.03
2023-04-16T08:42:48.779Z,2.88
2023-04-16T08:45:19.600Z,2.35
2023-04-16T08:47:50.375Z,2.97
2023-04-16T08:50:24.208Z,3.00
2023-04-16T08:52:59.398Z,2.83
2023-04-16T08:55:37.213Z,2.75
2023-04-16T08:58:23.686Z,2.30
2023-04-16T09:00:52.311Z,3.35
2023-04-16T09:03:21.680Z,2.97
2023-04-16T09:05:51.666Z,2.90
2023-04-16T09:08:20.303Z,2.22
2023-04-16T09:10:49.150Z,2.67
2023-04-16T09:13:20.469Z,3.10
2023-04-16T09:15:51.957Z,3.17
2023-04-16T09:18:21.493Z,3.05
2023-04-16T09:20:51.212Z,2.90
2023-04-16T09:23:18.937Z,2.45
2023-04-16T09:25:46.669Z,2.60
2023-04-16T09:28:41.137Z,2.42
2023-04-16T09:31:10.866Z,2.70
2023-04-16T09:33:39.706Z,3.03
2023-04-16T09:36:07.989Z,2.78
2023-04-16T09:38:56.903Z,2.78
2023-04-16T09:41:31.852Z,3.30
2023-04-16T09:44:04.612Z,2.85
2023-04-16T09:46:35.488Z,2.38
2023-04-16T09:49:21.127Z,2.90
2023-04-16T09:51:54.700Z,2.58
2023-04-16T09:54:22.337Z,2.45
2023-04-16T09:56:51.264Z,2.40
2023-04-16T09:59:23.781Z,3.03
2023-04-16T10:01:57.217Z,2.72
2023-04-16T10:04:53.067Z,2.72
2023-04-16T10:07:21.864Z,2.58
2023-04-16T10:09:50.114Z,2.97
2023-04-16T10:12:17.699Z,2.90
2023-04-16T10:14:45.280Z,3.25
2023-04-16T10:17:13.173Z,2.80
2023-04-16T10:19:41.926Z,3.05
2023-04-16T10:22:09.447Z,2.97
2023-04-16T10:24:37.138Z,27.08
2023-04-16T10:27:04.734Z,4.13
2023-04-16T10:29:33.845Z,2.85
2023-04-16T10:32:04.167Z,2.80
2023-04-16T10:34:32.262Z,2.70
2023-04-16T10:37:00.800Z,2.78
2023-04-16T10:39:30.915Z,2.85
2023-04-16T10:42:27.718Z,2.30
2023-04-16T10:44:59.077Z,2.60
2023-04-16T10:47:27.028Z,2.70
2023-04-16T10:49:58.812Z,2.80
2023-04-16T10:52:29.668Z,2.33
2023-04-16T10:54:59.454Z,2.28
2023-04-16T10:57:29.351Z,2.33
2023-04-16T10:59:57.110Z,2.47
2023-04-16T11:02:31.008Z,2.78
2023-04-16T11:04:59.078Z,2.65
2023-04-16T11:07:39.439Z,2.47
2023-04-16T11:10:07.745Z,2.70
2023-04-16T11:12:40.172Z,2.88
2023-04-16T11:15:13.081Z,2.42
2023-04-16T11:17:44.237Z,3.17
2023-04-16T11:20:41.529Z,2.55
2023-04-16T11:23:11.557Z,2.17
2023-04-16T11:25:39.253Z,2.45
2023-04-16T11:28:06.844Z,2.25
2023-04-16T11:30:36.387Z,2.47
2023-04-16T11:33:05.889Z,2.85
2023-04-16T11:35:33.731Z,2.53
2023-04-16T11:38:01.279Z,2.70
2023-04-16T11:40:32.154Z,2.22
2023-04-16T11:43:12.800Z,2.40
2023-04-16T11:45:55.156Z,2.83
2023-04-16T11:48:22.982Z,2.42
2023-04-16T11:50:59.671Z,2.53
2023-04-16T11:53:27.372Z,2.70
2023-04-16T11:55:54.917Z,2.88
2023-04-16T11:58:24.309Z,2.40
2023-04-16T12:00:56.905Z,2.80
2023-04-16T12:03:47.274Z,2.83
2023-04-16T12:06:16.106Z,2.80
2023-04-16T12:08:43.708Z,2.55
2023-04-16T12:11:11.416Z,2.42
2023-04-16T12:13:40.325Z,2.30
2023-04-16T12:16:18.945Z,2.72
2023-04-16T12:19:05.889Z,3.20
2023-04-16T12:21:45.929Z,2.55
2023-04-16T12:24:15.889Z,2.13
2023-04-16T12:26:46.672Z,2.40
2023-04-16T12:29:24.225Z,2.55
2023-04-16T12:31:53.329Z,2.67
2023-04-16T12:34:21.871Z,2.97
2023-04-16T12:37:12.436Z,2.58
2023-04-16T12:39:40.030Z,2.70
2023-04-16T12:42:11.307Z,2.85
2023-04-16T12:44:39.089Z,2.70
2023-04-16T12:47:06.972Z,3.58
2023-04-16T12:49:36.426Z,2.67
2023-04-16T12:52:04.348Z,2.90
2023-04-16T12:54:32.153Z,2.80
2023-04-16T12:56:59.867Z,2.90
2023-04-16T12:59:27.432Z,2.55
2023-04-16T13:01:56.358Z,3.25
2023-04-16T13:04:25.696Z,4.15
2023-04-16T13:06:53.681Z,3.20
2023-04-16T13:09:21.544Z,3.35
2023-04-16T13:11:49.427Z,3.65
2023-04-16T13:14:17.048Z,3.05
2023-04-16T13:16:44.690Z,2.67
2023-04-16T13:19:12.549Z,3.42
2023-04-16T13:21:40.678Z,2.38
2023-04-16T13:24:09.925Z,3.10
2023-04-16T13:26:37.451Z,2.70
2023-04-16T13:29:04.984Z,3.08
2023-04-16T13:31:33.254Z,3.45
2023-04-16T13:34:01.085Z,3.00
2023-04-16T13:36:30.175Z,3.03
2023-04-16T13:38:58.673Z,3.72
2023-04-16T13:41:26.499Z,2.80
2023-04-16T13:43:54.822Z,2.60
2023-04-16T13:46:22.579Z,3.38
2023-04-16T13:48:50.176Z,4.00
2023-04-16T13:51:17.804Z,3.03
2023-04-16T13:53:45.372Z,2.63
2023-04-16T13:56:12.964Z,2.45
2023-04-16T13:58:41.519Z,3.00
2023-04-16T14:01:09.943Z,3.33
2023-04-16T14:03:39.094Z,3.65
2023-04-16T14:06:06.828Z,3.80
2023-04-16T14:08:35.433Z,3.25
2023-04-16T14:11:03.107Z,3.15
2023-04-16T14:13:30.656Z,2.95
2023-04-16T14:15:58.220Z,3.13
2023-04-16T14:18:25.952Z,3.47
2023-04-16T14:20:53.489Z,3.35
2023-04-16T14:23:21.417Z,3.55
2023-04-16T14:25:51.881Z,3.47
2023-04-16T14:28:20.475Z,3.58
2023-04-16T14:30:48.274Z,3.83
2023-04-16T14:33:20.549Z,3.40
2023-04-16T14:35:50.378Z,3.47
2023-04-16T14:38:18.233Z,4.13
2023-04-16T14:40:45.835Z,3.85
2023-04-16T14:43:13.397Z,3.20
2023-04-16T14:45:41.032Z,2.90
2023-04-16T14:48:09.195Z,2.70
2023-04-16T14:50:43.735Z,2.85
2023-04-16T14:53:12.058Z,3.80
2023-04-16T14:55:39.983Z,3.90
2023-04-16T14:58:07.544Z,3.75
2023-04-16T15:00:35.753Z,3.45
2023-04-16T15:03:03.508Z,3.97
2023-04-16T15:05:31.937Z,4.10
2023-04-16T15:08:00.686Z,3.80
2023-04-16T15:10:28.378Z,3.70
2023-04-16T15:12:56.099Z,2.90
2023-04-16T15:15:23.596Z,3.58
2023-04-16T15:17:52.006Z,3.13
2023-04-16T15:20:19.646Z,3.40
2023-04-16T15:22:47.152Z,3.70
2023-04-16T15:25:14.718Z,3.92
2023-04-16T15:27:42.289Z,3.35
2023-04-16T15:30:13.459Z,3.20
2023-04-16T15:32:41.415Z,3.15
2023-04-16T15:35:11.202Z,3.58
2023-04-16T15:37:39.275Z,3.38
2023-04-16T15:40:10.857Z,3.63
2023-04-16T15:42:39.118Z,3.85
2023-04-16T15:45:07.104Z,3.97
2023-04-16T15:47:37.202Z,3.30
2023-04-16T15:50:06.651Z,4.22
2023-04-16T15:52:34.380Z,4.30
2023-04-16T15:55:06.431Z,4.13
2023-04-16T15:57:35.164Z,3.65
2023-04-16T16:00:06.930Z,4.05
2023-04-16T16:02:35.251Z,3.83
2023-04-16T16:05:03.486Z,3.70
2023-04-16T16:07:31.555Z,3.55
2023-04-16T16:09:59.300Z,4.45
2023-04-16T16:12:27.398Z,3.92
2023-04-16T16:14:55.754Z,3.83
2023-04-16T16:17:23.403Z,4.30
2023-04-16T16:19:52.422Z,3.92
2023-04-16T16:22:20.808Z,4.22
2023-04-16T16:24:51.019Z,3.25
2023-04-16T16:27:19.865Z,3.50
2023-04-16T16:29:47.644Z,3.53
2023-04-16T16:32:15.317Z,3.70
2023-04-16T16:34:43.365Z,3.90
2023-04-16T16:37:10.885Z,4.28
2023-04-16T16:39:38.835Z,4.82
2023-04-16T16:42:08.651Z,5.38
2023-04-16T16:44:36.979Z,4.03
2023-04-16T16:47:04.599Z,4.13
2023-04-16T16:49:32.311Z,3.95
2023-04-16T16:52:01.965Z,4.30
2023-04-16T16:54:29.608Z,4.15
2023-04-16T16:56:57.276Z,4.43
2023-04-16T16:59:24.784Z,4.22
2023-04-16T17:01:52.371Z,4.25
2023-04-16T17:04:20.500Z,4.88
2023-04-16T17:06:48.493Z,4.68
2023-04-16T17:09:17.212Z,5.43
2023-04-16T17:11:44.945Z,5.07
2023-04-16T17:14:12.506Z,4.70
2023-04-16T17:16:40.118Z,5.15
2023-04-16T17:19:07.695Z,4.57
2023-04-16T17:21:36.311Z,5.35
2023-04-16T17:24:05.164Z,4.70
2023-04-16T17:26:32.842Z,4.38
2023-04-16T17:29:00.384Z,4.55
2023-04-16T17:31:28.722Z,4.10
2023-04-16T17:33:56.274Z,4.15
2023-04-16T17:37:19.656Z,4.88
2023-04-16T17:45:10.528Z,4.85
2023-04-16T17:48:35.997Z,4.75
2023-04-16T17:55:03.751Z,4.45
2023-04-16T17:57:31.988Z,4.90
2023-04-16T17:59:59.786Z,4.35
2023-04-16T18:02:27.765Z,4.78
2023-04-16T18:04:55.620Z,5.53
2023-04-16T18:07:24.015Z,5.00
2023-04-16T18:09:51.626Z,5.85
2023-04-16T18:12:19.252Z,4.95
2023-04-16T18:14:46.978Z,5.20
2023-04-16T18:17:14.947Z,4.78
2023-04-16T18:19:44.939Z,5.85
2023-04-16T18:22:13.509Z,6.75
2023-04-16T18:24:44.799Z,6.03
2023-04-16T18:27:12.698Z,5.43
2023-04-16T18:29:40.749Z,5.80
2023-04-16T18:32:11.677Z,5.65
2023-04-16T18:34:39.682Z,5.28
2023-04-16T18:37:07.588Z,8.20
2023-04-16T18:39:35.955Z,6.45
2023-04-16T18:42:03.990Z,5.80
2023-04-16T18:44:32.331Z,5.78
2023-04-16T18:46:59.901Z,6.35
2023-04-16T18:49:27.589Z,5.78
2023-04-16T18:51:57.977Z,6.30
2023-04-16T18:54:25.652Z,6.63
2023-04-16T18:56:53.167Z,6.43
2023-04-16T18:59:21.862Z,6.88
2023-04-16T19:01:49.631Z,6.93
2023-04-16T19:04:17.356Z,6.65
2023-04-16T19:06:46.471Z,7.03
2023-04-16T19:09:14.883Z,6.65
2023-04-16T19:11:42.870Z,6.88
2023-04-16T19:14:11.485Z,7.40
2023-04-16T19:16:39.498Z,7.30
2023-04-16T19:19:07.132Z,7.68
2023-04-16T19:21:54.505Z,8.10
2023-04-16T19:24:41.596Z,7.97
2023-04-16T19:27:09.186Z,7.65
2023-04-16T19:29:37.100Z,8.15
2023-04-16T19:32:04.821Z,8.10
2023-04-16T19:35:30.776Z,8.50
2023-04-16T19:38:30.179Z,7.13
2023-04-16T19:45:46.600Z,7.97
2023-04-16T19:49:36.476Z,7.63
2023-04-16T20:00:52.810Z,9.35
2023-04-16T20:03:20.953Z,10.02
2023-04-16T20:05:49.870Z,8.00
2023-04-16T20:08:17.548Z,8.20
2023-04-16T20:10:45.446Z,8.07
2023-04-16T20:13:13.847Z,7.95
2023-04-16T20:15:41.878Z,29.27
2023-04-16T20:18:09.444Z,10.95
2023-04-16T20:20:39.833Z,8.98
2023-04-16T20:23:07.905Z,8.93
2023-04-16T20:25:35.554Z,10.02
2023-04-16T20:28:03.144Z,9.70
2023-04-16T20:30:38.506Z,9.07
2023-04-16T20:33:06.965Z,10.02
2023-04-16T20:35:35.363Z,9.07
2023-04-16T20:38:03.122Z,8.68
2023-04-16T20:40:30.809Z,8.65
2023-04-16T20:43:01.730Z,8.60
2023-04-16T20:45:38.178Z,8.48
2023-04-16T20:48:06.278Z,7.47
2023-04-16T20:50:34.031Z,7.97
2023-04-16T20:53:01.714Z,8.50
2023-04-16T20:55:31.599Z,8.55
2023-04-16T20:58:14.302Z,8.40
2023-04-16T21:00:52.303Z,7.80
2023-04-16T21:03:23.546Z,8.18
2023-04-16T21:05:55.859Z,8.95
2023-04-16T21:08:25.986Z,8.43
2023-04-16T21:10:53.688Z,7.28
2023-04-16T21:13:21.918Z,8.52
2023-04-16T21:15:49.551Z,7.50
2023-04-16T21:18:18.625Z,7.65
2023-04-16T21:20:46.683Z,8.10
2023-04-16T21:23:14.293Z,9.02
2023-04-16T21:25:42.145Z,29.25
2023-04-16T21:28:09.669Z,12.25
2023-04-16T21:30:37.336Z,10.32
2023-04-16T21:33:05.087Z,9.05
2023-04-16T21:35:33.424Z,9.82
2023-04-16T21:38:01.207Z,9.82
2023-04-16T21:43:34.652Z,9.07
2023-04-16T21:46:04.979Z,9.88
2023-04-16T21:48:32.784Z,9.30
2023-04-16T21:51:06.477Z,8.40
2023-04-16T21:53:34.466Z,8.33
2023-04-16T21:56:02.008Z,7.63
2023-04-16T21:58:29.739Z,8.73
2023-04-16T22:00:57.411Z,8.20
2023-04-16T22:03:30.596Z,7.97
2023-04-16T22:06:23.522Z,8.17
2023-04-16T22:17:17.226Z,7.32
2023-04-16T22:19:45.203Z,7.33
2023-04-16T22:22:13.540Z,9.13
2023-04-16T22:24:41.302Z,7.10
2023-04-16T22:27:08.910Z,7.83
2023-04-16T22:29:36.545Z,8.35
2023-04-16T22:32:04.368Z,7.83
2023-04-16T22:35:12.753Z,8.13
2023-04-16T22:37:40.934Z,7.75
2023-04-16T22:40:10.767Z,8.38
2023-04-16T22:42:38.345Z,7.80
2023-04-16T22:45:07.356Z,8.10
2023-04-16T22:47:35.017Z,7.43
2023-04-16T22:50:03.373Z,8.47
2023-04-16T22:52:32.250Z,7.93
2023-04-16T22:54:59.795Z,8.57
2023-04-16T22:57:27.288Z,8.20
2023-04-16T22:59:54.951Z,8.00
2023-04-16T23:02:22.478Z,8.07
2023-04-16T23:04:50.536Z,6.93
2023-04-16T23:07:17.959Z,7.77
2023-04-16T23:09:45.546Z,8.70
2023-04-16T23:12:13.107Z,8.17
2023-04-16T23:14:46.077Z,8.80
2023-04-16T23:17:13.954Z,8.17
2023-04-16T23:19:42.006Z,7.93
2023-04-16T23:22:10.114Z,7.30
2023-04-16T23:24:37.628Z,8.00
2023-04-16T23:27:05.439Z,7.93
2023-04-16T23:29:33.152Z,8.00
2023-04-16T23:32:00.665Z,8.27
2023-04-16T23:34:28.250Z,8.00
2023-04-16T23:36:55.721Z,7.83
2023-04-16T23:39:23.229Z,7.70
2023-04-16T23:41:50.737Z,8.43
2023-04-16T23:44:18.320Z,8.23
2023-04-16T23:46:46.056Z,8.67
2023-04-16T23:49:13.689Z,8.10
2023-04-16T23:51:41.327Z,7.80
2023-04-16T23:54:08.951Z,7.93
2023-04-16T23:56:36.512Z,8.73
2023-04-16T23:59:04.120Z,8.00
